Time;durP1;ratioP1;P1;durP2;ratioP2;P2;SDS_P1;SDS_P2;PMS_P1;PMS_P2;Temp;Humidity;BMP_temperature;BMP_pressure;BME280_temperature;BME280_humidity;BME280_pressure;Samples;Min_cycle;Max_cycle;Signal;HPM_P1;HPM_P2
2022/03/02 00:01:52;;;;;;;18.95;12.90;;;-3.60;99.90;;;;;;5005845;28;20022;-57
2022/03/02 00:04:18;;;;;;;18.48;11.73;;;-3.60;99.90;;;;;;4995271;28;20038;-59
2022/03/02 00:06:44;;;;;;;23.65;12.13;;;-3.60;99.90;;;;;;4996106;28;20367;-57
2022/03/02 00:09:09;;;;;;;16.42;11.93;;;-3.50;99.90;;;;;;4996575;28;20449;-56
2022/03/02 00:11:35;;;;;;;18.67;11.65;;;-3.50;99.90;;;;;;5001178;28;20552;-58
2022/03/02 00:14:03;;;;;;;17.17;11.20;;;-3.50;99.90;;;;;;5003826;28;20497;-57
2022/03/02 00:16:29;;;;;;;15.15;10.55;;;-3.50;99.90;;;;;;4999827;28;20030;-57
2022/03/02 00:18:56;;;;;;;13.85;10.65;;;-3.50;99.90;;;;;;4995877;28;20084;-57
2022/03/02 00:21:22;;;;;;;12.13;9.82;;;-3.50;99.90;;;;;;4999713;28;20501;-56
2022/03/02 00:23:48;;;;;;;13.55;9.82;;;-3.50;99.90;;;;;;4995035;28;20045;-57
2022/03/02 00:26:14;;;;;;;15.35;9.43;;;-3.50;99.90;;;;;;4997179;28;20033;-56
2022/03/02 00:28:40;;;;;;;15.70;12.70;;;-3.60;99.90;;;;;;4999383;28;20417;-57
2022/03/02 00:31:06;;;;;;;31.88;18.20;;;-3.60;99.90;;;;;;4998501;28;20081;-56
2022/03/02 00:33:31;;;;;;;30.05;16.90;;;-3.60;99.90;;;;;;5001699;28;20026;-58
2022/03/02 00:35:57;;;;;;;14.15;11.50;;;-3.60;99.90;;;;;;5004545;28;20108;-58
2022/03/02 00:38:23;;;;;;;19.52;12.15;;;-3.60;99.90;;;;;;5000570;28;20466;-56
2022/03/02 00:40:49;;;;;;;17.48;11.65;;;-3.60;99.90;;;;;;4994573;28;20529;-56
2022/03/02 00:43:14;;;;;;;15.90;11.55;;;-3.60;99.90;;;;;;4995802;28;20029;-59
2022/03/02 00:45:40;;;;;;;15.50;10.85;;;-3.60;99.90;;;;;;4999277;28;20088;-58
2022/03/02 00:48:07;;;;;;;15.20;11.13;;;-3.60;99.90;;;;;;5000508;28;20092;-57
2022/03/02 00:50:33;;;;;;;14.75;10.38;;;-3.60;99.90;;;;;;4998361;28;20022;-57
2022/03/02 00:52:59;;;;;;;16.30;11.13;;;-3.60;99.90;;;;;;5004751;28;20034;-56
2022/03/02 00:55:25;;;;;;;17.10;10.65;;;-3.60;99.90;;;;;;5008390;28;20031;-56
2022/03/02 00:57:51;;;;;;;16.30;11.95;;;-3.60;99.90;;;;;;4996711;28;20121;-58
2022/03/02 01:00:17;;;;;;;17.02;10.48;;;-3.60;99.90;;;;;;5001035;28;20126;-58
2022/03/02 01:02:43;;;;;;;20.08;11.77;;;-3.50;99.90;;;;;;5000136;28;20038;-57
2022/03/02 01:05:10;;;;;;;19.80;11.55;;;-3.40;99.90;;;;;;5005176;28;20029;-56
2022/03/02 01:07:36;;;;;;;14.23;11.05;;;-3.40;99.90;;;;;;5004140;28;20731;-57
2022/03/02 01:10:04;;;;;;;14.85;11.73;;;-3.40;99.90;;;;;;5000110;28;20038;-56
2022/03/02 01:12:30;;;;;;;24.17;12.43;;;-3.40;99.90;;;;;;5003492;28;20031;-58
2022/03/02 01:14:56;;;;;;;18.30;12.27;;;-3.50;99.90;;;;;;5001365;28;20520;-57
2022/03/02 01:17:22;;;;;;;15.63;10.25;;;-3.50;99.90;;;;;;5005187;28;20030;-58
2022/03/02 01:19:49;;;;;;;13.80;10.48;;;-3.50;99.90;;;;;;4999443;28;20039;-57
2022/03/02 01:22:15;;;;;;;17.30;11.27;;;-3.50;99.90;;;;;;4998354;28;20164;-56
2022/03/02 01:24:41;;;;;;;17.48;11.80;;;-3.60;99.90;;;;;;5000839;28;20571;-57
2022/03/02 01:27:07;;;;;;;16.90;11.27;;;-3.60;99.90;;;;;;5015909;28;20042;-57
2022/03/02 01:29:35;;;;;;;16.48;10.98;;;-3.60;99.90;;;;;;5000432;28;20390;-58
2022/03/02 01:32:05;;;;;;;16.58;10.55;;;-3.70;99.90;;;;;;5001346;28;20104;-56
2022/03/02 01:34:31;;;;;;;18.15;11.45;;;-3.80;99.90;;;;;;5005647;28;20411;-58
2022/03/02 01:36:57;;;;;;;17.33;11.38;;;-3.80;99.90;;;;;;5000273;28;20073;-58
2022/03/02 01:39:22;;;;;;;14.65;11.65;;;-3.90;99.90;;;;;;5003363;28;20125;-57
2022/03/02 01:41:48;;;;;;;15.35;11.20;;;-4.00;99.90;;;;;;5002353;28;20121;-57
2022/03/02 01:44:14;;;;;;;19.83;11.35;;;-4.00;99.90;;;;;;5002769;28;20034;-58
2022/03/02 01:46:39;;;;;;;19.02;12.63;;;-4.10;99.90;;;;;;5000739;28;20494;-57
2022/03/02 01:49:06;;;;;;;16.95;12.00;;;-4.10;99.90;;;;;;4998858;28;20040;-57
2022/03/02 01:51:32;;;;;;;17.08;12.43;;;-4.20;99.90;;;;;;4999011;28;20599;-57
2022/03/02 01:53:58;;;;;;;19.40;12.20;;;-4.30;99.90;;;;;;5001454;28;20053;-57
2022/03/02 01:56:23;;;;;;;17.92;11.50;;;-4.30;99.90;;;;;;5004456;28;20018;-56
2022/03/02 01:58:49;;;;;;;19.60;12.20;;;-4.40;99.90;;;;;;5001199;28;20665;-58
2022/03/02 02:01:16;;;;;;;16.35;11.95;;;-4.40;99.90;;;;;;5002588;28;20050;-57
2022/03/02 02:03:42;;;;;;;19.92;11.93;;;-4.40;99.90;;;;;;5002479;28;20021;-58
2022/03/02 02:06:08;;;;;;;17.95;11.18;;;-4.40;99.90;;;;;;5006372;28;20110;-57
2022/03/02 02:08:34;;;;;;;18.25;12.13;;;-4.40;99.90;;;;;;5001180;28;20085;-56
2022/03/02 02:11:01;;;;;;;17.45;11.55;;;-4.40;99.90;;;;;;5001135;28;20030;-57
2022/03/02 02:13:30;;;;;;;16.65;11.48;;;-4.40;99.90;;;;;;5001728;28;20034;-56
2022/03/02 02:15:56;;;;;;;16.65;11.25;;;-4.40;99.90;;;;;;5002601;28;20035;-57
2022/03/02 02:18:21;;;;;;;16.33;11.23;;;-4.40;99.90;;;;;;5000672;28;20505;-56
2022/03/02 02:20:47;;;;;;;19.55;12.65;;;-4.40;99.90;;;;;;5003724;28;20085;-59
2022/03/02 02:23:13;;;;;;;20.02;11.60;;;-4.40;99.90;;;;;;4997821;28;20018;-56
2022/03/02 02:25:39;;;;;;;18.58;11.48;;;-4.40;99.90;;;;;;4997976;28;20026;-57
2022/03/02 02:28:06;;;;;;;26.77;12.45;;;-4.40;99.90;;;;;;5000421;28;20556;-57
2022/03/02 02:30:32;;;;;;;20.52;12.82;;;-4.40;99.90;;;;;;4998426;28;20121;-58
2022/03/02 02:32:58;;;;;;;17.35;12.48;;;-4.40;99.90;;;;;;4999779;28;20489;-57
2022/03/02 02:35:25;;;;;;;21.35;13.40;;;-4.40;99.90;;;;;;4997478;28;20033;-56
2022/03/02 02:37:51;;;;;;;20.55;13.98;;;-4.40;99.90;;;;;;5005458;28;20045;-58
2022/03/02 02:40:18;;;;;;;21.10;13.65;;;-4.40;99.90;;;;;;5004898;28;20050;-57
2022/03/02 02:42:45;;;;;;;20.23;12.60;;;-4.40;99.90;;;;;;4998453;28;20023;-57
2022/03/02 02:45:17;;;;;;;17.30;11.98;;;-4.40;99.90;;;;;;4999691;28;20393;-57
2022/03/02 02:47:44;;;;;;;15.68;11.95;;;-4.40;99.90;;;;;;5001783;28;20033;-58
2022/03/02 02:50:24;;;;;;;20.10;11.80;;;-4.50;99.90;;;;;;5000288;28;20076;-56
2022/03/02 02:52:51;;;;;;;20.80;13.68;;;-4.50;99.90;;;;;;5001826;28;20042;-57
2022/03/02 02:55:17;;;;;;;22.83;13.55;;;-4.60;99.90;;;;;;5000501;28;20041;-57
2022/03/02 02:57:44;;;;;;;24.58;14.63;;;-4.60;99.90;;;;;;4997113;28;20486;-57
2022/03/02 03:00:16;;;;;;;22.38;13.63;;;-4.60;99.90;;;;;;5003579;28;20080;-58
2022/03/02 03:02:42;;;;;;;23.08;14.93;;;-4.60;99.90;;;;;;5001188;28;20033;-57
2022/03/02 03:05:12;;;;;;;27.88;13.75;;;-4.60;99.90;;;;;;4998917;28;20064;-57
2022/03/02 03:07:39;;;;;;;20.10;13.32;;;-4.50;99.90;;;;;;4997271;28;20026;-57
2022/03/02 03:10:05;;;;;;;22.98;13.95;;;-4.50;99.90;;;;;;4999865;28;20401;-56
2022/03/02 03:12:31;;;;;;;23.65;13.93;;;-4.40;99.90;;;;;;4997694;28;20022;-57
2022/03/02 03:14:57;;;;;;;20.75;13.45;;;-4.40;99.90;;;;;;4999593;28;20034;-56
2022/03/02 03:17:22;;;;;;;19.05;12.50;;;-4.40;99.90;;;;;;4996673;28;20494;-58
2022/03/02 03:19:48;;;;;;;20.33;13.13;;;-4.30;99.90;;;;;;5001291;28;20104;-58
2022/03/02 03:22:13;;;;;;;19.45;12.95;;;-4.30;99.90;;;;;;4997764;28;20030;-56
2022/03/02 03:24:39;;;;;;;19.77;12.75;;;-4.30;99.90;;;;;;4999153;28;20378;-57
2022/03/02 03:27:05;;;;;;;19.70;12.63;;;-4.30;99.90;;;;;;4998377;28;20035;-58
2022/03/02 03:29:30;;;;;;;18.35;12.20;;;-4.20;99.90;;;;;;4994804;28;20038;-58
2022/03/02 03:31:56;;;;;;;19.33;12.90;;;-4.20;99.90;;;;;;4997898;28;20018;-58
2022/03/02 03:34:21;;;;;;;19.92;12.48;;;-4.30;99.90;;;;;;4999349;28;20038;-57
2022/03/02 03:36:47;;;;;;;18.38;11.88;;;-4.30;99.90;;;;;;4998772;28;20482;-58
2022/03/02 03:39:13;;;;;;;16.00;12.25;;;-4.30;99.90;;;;;;4998916;28;20053;-57
2022/03/02 03:41:38;;;;;;;18.70;11.60;;;-4.30;99.90;;;;;;5000121;28;20129;-57
2022/03/02 03:44:04;;;;;;;16.00;11.55;;;-4.30;99.90;;;;;;5002358;28;20084;-56
2022/03/02 03:46:30;;;;;;;16.90;11.63;;;-4.30;99.90;;;;;;5004750;28;20035;-57
2022/03/02 03:48:56;;;;;;;22.33;13.90;;;-4.30;99.90;;;;;;4993899;28;20398;-56
2022/03/02 03:51:21;;;;;;;23.70;13.63;;;-4.30;99.90;;;;;;4998919;28;20443;-57
2022/03/02 03:53:47;;;;;;;16.90;11.65;;;-4.30;99.90;;;;;;5000863;28;20039;-58
2022/03/02 03:56:13;;;;;;;20.50;12.35;;;-4.30;99.90;;;;;;4998300;28;20481;-56
2022/03/02 03:58:39;;;;;;;19.02;12.32;;;-4.20;99.90;;;;;;5002159;28;20475;-56
2022/03/02 04:01:05;;;;;;;18.25;12.02;;;-4.20;99.90;;;;;;4998162;28;20034;-57
2022/03/02 04:03:31;;;;;;;18.17;11.20;;;-4.20;99.90;;;;;;4997198;28;20029;-56
2022/03/02 04:05:56;;;;;;;17.33;11.50;;;-4.10;99.90;;;;;;5000194;28;20121;-57
2022/03/02 04:08:22;;;;;;;18.35;12.48;;;-4.10;99.90;;;;;;4997348;28;20710;-57
2022/03/02 04:10:49;;;;;;;24.55;11.73;;;-4.10;99.90;;;;;;5001206;28;20018;-56
2022/03/02 04:13:15;;;;;;;17.90;11.82;;;-4.00;99.90;;;;;;5015974;28;20045;-57
2022/03/02 04:15:41;;;;;;;20.63;11.75;;;-3.90;99.90;;;;;;4999801;28;20022;-56
2022/03/02 04:18:07;;;;;;;15.15;11.93;;;-3.90;99.90;;;;;;4996244;28;20027;-58
2022/03/02 04:20:36;;;;;;;20.38;12.50;;;-3.90;99.90;;;;;;5001903;28;20041;-58
2022/03/02 04:23:03;;;;;;;19.67;12.25;;;-3.90;99.90;;;;;;4999417;28;20019;-57
2022/03/02 04:25:29;;;;;;;22.00;12.02;;;-3.90;99.90;;;;;;5000836;28;20517;-58
2022/03/02 04:27:55;;;;;;;20.98;12.02;;;-3.90;99.90;;;;;;4998928;28;20034;-58
2022/03/02 04:30:20;;;;;;;17.92;11.55;;;-3.90;99.90;;;;;;5003428;28;20030;-56
2022/03/02 04:32:46;;;;;;;21.58;11.68;;;-3.90;99.90;;;;;;5001088;28;20433;-57
2022/03/02 04:35:13;;;;;;;17.33;12.48;;;-3.90;99.90;;;;;;5002074;28;20030;-56
2022/03/02 04:37:40;;;;;;;17.95;12.52;;;-3.90;99.90;;;;;;5007430;28;20029;-57
2022/03/02 04:40:08;;;;;;;22.38;12.73;;;-4.00;99.90;;;;;;5001746;28;20100;-56
2022/03/02 04:42:35;;;;;;;19.85;12.40;;;-4.00;99.90;;;;;;5002975;28;20493;-58
2022/03/02 04:45:01;;;;;;;16.60;11.60;;;-4.00;99.90;;;;;;5005348;28;20041;-56
2022/03/02 04:47:27;;;;;;;23.63;11.43;;;-4.00;99.90;;;;;;5005217;28;20745;-57
2022/03/02 04:49:53;;;;;;;22.52;11.82;;;-4.00;99.90;;;;;;4997343;28;20030;-57
2022/03/02 04:52:19;;;;;;;20.83;13.25;;;-4.00;99.90;;;;;;5002269;28;20038;-55
2022/03/02 04:57:29;;;;;;;19.65;12.45;;;-4.00;99.90;;;;;;5002984;28;20061;-56
2022/03/02 04:59:55;;;;;;;21.70;12.52;;;-4.00;99.90;;;;;;5001448;28;20038;-57
2022/03/02 05:02:21;;;;;;;21.83;11.98;;;-4.00;99.90;;;;;;5005581;28;20555;-56
2022/03/02 05:04:47;;;;;;;20.30;12.77;;;-4.00;99.90;;;;;;5001604;28;20021;-56
2022/03/02 05:07:13;;;;;;;15.32;11.95;;;-4.00;99.90;;;;;;5002865;28;20034;-57
2022/03/02 05:09:38;;;;;;;19.95;11.98;;;-3.90;99.90;;;;;;5003324;28;20561;-58
2022/03/02 05:12:04;;;;;;;19.38;11.55;;;-3.90;99.90;;;;;;5001632;28;20053;-57
2022/03/02 05:14:30;;;;;;;20.90;12.40;;;-3.90;99.90;;;;;;5006382;28;20489;-57
2022/03/02 05:16:56;;;;;;;16.83;11.15;;;-3.90;99.90;;;;;;5001053;28;20033;-57
2022/03/02 05:19:22;;;;;;;16.90;11.48;;;-3.90;99.90;;;;;;5002023;28;20031;-56
2022/03/02 05:21:50;;;;;;;19.30;10.75;;;-3.90;99.90;;;;;;4998452;28;20034;-57
2022/03/02 05:24:16;;;;;;;15.38;11.32;;;-3.90;99.90;;;;;;5005471;28;20030;-56
2022/03/02 05:26:42;;;;;;;16.70;11.77;;;-3.90;99.90;;;;;;5003340;28;20497;-56
2022/03/02 05:29:08;;;;;;;13.95;11.40;;;-3.90;99.90;;;;;;5004941;28;20029;-57
2022/03/02 05:31:34;;;;;;;17.33;11.55;;;-3.90;99.90;;;;;;4999395;28;20022;-58
2022/03/02 05:34:00;;;;;;;15.68;11.80;;;-3.90;99.90;;;;;;5002542;28;20037;-57
2022/03/02 05:36:26;;;;;;;19.63;11.88;;;-3.80;99.90;;;;;;4996955;28;20113;-58
2022/03/02 05:38:52;;;;;;;18.80;12.25;;;-3.80;99.90;;;;;;4997245;28;20493;-58
2022/03/02 05:41:18;;;;;;;19.27;11.93;;;-3.80;99.90;;;;;;5003296;28;20031;-58
2022/03/02 05:43:44;;;;;;;26.25;12.60;;;-3.80;99.90;;;;;;5005278;28;20041;-58
2022/03/02 05:46:09;;;;;;;21.50;12.35;;;-3.70;99.90;;;;;;5003146;28;20188;-56
2022/03/02 05:48:35;;;;;;;16.92;11.63;;;-3.70;99.90;;;;;;5001330;28;20022;-57
2022/03/02 05:51:01;;;;;;;21.83;10.73;;;-3.70;99.90;;;;;;5001922;28;20030;-56
2022/03/02 05:53:27;;;;;;;25.40;13.10;;;-3.60;99.90;;;;;;5000373;28;20030;-58
2022/03/02 05:55:52;;;;;;;22.27;13.68;;;-3.60;99.90;;;;;;4999441;28;20188;-58
2022/03/02 05:58:18;;;;;;;23.48;13.18;;;-3.50;99.90;;;;;;5003071;28;20080;-57
2022/03/02 06:00:43;;;;;;;22.10;12.82;;;-3.50;99.90;;;;;;5000763;28;20495;-57
2022/03/02 06:03:09;;;;;;;19.13;11.57;;;-3.50;99.90;;;;;;5000645;28;20026;-57
2022/03/02 06:05:35;;;;;;;21.95;12.25;;;-3.50;99.90;;;;;;5003892;28;20103;-58
2022/03/02 06:08:01;;;;;;;17.60;12.77;;;-3.40;99.90;;;;;;5003063;28;20026;-57
2022/03/02 06:10:27;;;;;;;21.20;12.50;;;-3.40;99.90;;;;;;4997736;28;20034;-57
2022/03/02 06:12:53;;;;;;;17.77;12.10;;;-3.40;99.90;;;;;;5003378;28;20038;-57
2022/03/02 06:15:18;;;;;;;23.63;13.13;;;-3.40;99.90;;;;;;5000422;28;20091;-59
2022/03/02 06:17:44;;;;;;;22.80;13.50;;;-3.40;99.90;;;;;;5003337;28;20077;-58
2022/03/02 06:20:11;;;;;;;27.10;12.55;;;-3.40;99.90;;;;;;5004849;28;20026;-56
2022/03/02 06:22:37;;;;;;;19.77;12.93;;;-3.40;99.90;;;;;;4999703;28;20030;-59
2022/03/02 06:25:05;;;;;;;20.75;13.10;;;-3.30;99.90;;;;;;4998080;28;20398;-59
2022/03/02 06:27:30;;;;;;;21.10;13.48;;;-3.30;99.90;;;;;;4997908;28;20045;-58
2022/03/02 06:29:56;;;;;;;24.70;13.27;;;-3.30;99.90;;;;;;5002070;28;20037;-58
2022/03/02 06:32:22;;;;;;;19.55;12.13;;;-3.30;99.90;;;;;;5000651;28;20021;-58
2022/03/02 06:34:47;;;;;;;18.27;13.70;;;-3.20;99.90;;;;;;5000432;28;20385;-58
2022/03/02 06:37:13;;;;;;;24.67;13.63;;;-3.10;99.90;;;;;;4996610;28;20030;-57
2022/03/02 06:39:39;;;;;;;14.73;11.90;;;-3.10;99.90;;;;;;5001159;28;20030;-59
2022/03/02 06:42:23;;;;;;;19.25;11.70;;;-3.00;99.90;;;;;;5000015;28;20026;-57
2022/03/02 06:45:11;;;;;;;18.90;11.68;;;-2.90;99.90;;;;;;5000548;28;20037;-58
2022/03/02 06:47:51;;;;;;;19.27;12.23;;;-2.80;99.90;;;;;;5003322;28;20021;-58
2022/03/02 06:50:23;;;;;;;16.25;12.20;;;-2.70;99.90;;;;;;5001795;28;20109;-60
2022/03/02 06:52:57;;;;;;;15.30;11.88;;;-2.60;99.90;;;;;;4996769;28;20109;-59
2022/03/02 06:55:23;;;;;;;19.05;12.32;;;-2.50;99.90;;;;;;4996467;28;20034;-58
2022/03/02 06:57:56;;;;;;;13.88;11.40;;;-2.50;99.90;;;;;;5000044;28;20049;-56
2022/03/02 07:00:23;;;;;;;25.65;13.30;;;-2.40;99.90;;;;;;4998944;28;20042;-57
2022/03/02 07:02:48;;;;;;;23.52;14.35;;;-2.40;99.90;;;;;;4999586;28;20107;-56
2022/03/02 07:05:15;;;;;;;23.67;15.20;;;-2.40;99.90;;;;;;4998359;28;20035;-59
2022/03/02 07:07:41;;;;;;;24.48;15.25;;;-2.30;99.90;;;;;;5008344;28;20034;-59
2022/03/02 07:10:08;;;;;;;23.23;15.98;;;-2.30;99.90;;;;;;5003835;28;20064;-58
2022/03/02 07:12:35;;;;;;;22.65;14.07;;;-2.10;99.90;;;;;;4999657;28;20057;-58
2022/03/02 07:15:01;;;;;;;27.42;15.60;;;-2.00;99.90;;;;;;4995540;28;20038;-58
2022/03/02 07:17:31;;;;;;;19.23;13.95;;;-1.90;99.90;;;;;;4998606;28;20029;-58
2022/03/02 07:19:58;;;;;;;15.43;11.90;;;-1.70;99.90;;;;;;5002458;28;20406;-57
2022/03/02 07:22:34;;;;;;;19.02;13.77;;;-1.60;99.90;;;;;;5001986;28;20034;-59
2022/03/02 07:25:04;;;;;;;17.08;12.02;;;-1.50;99.90;;;;;;5000296;28;20034;-59
2022/03/02 07:27:30;;;;;;;17.20;12.35;;;-1.40;99.90;;;;;;4996027;28;20557;-59
2022/03/02 07:29:56;;;;;;;16.70;12.40;;;-1.20;99.90;;;;;;4997118;28;20041;-58
2022/03/02 07:32:25;;;;;;;14.95;11.27;;;-1.00;99.90;;;;;;4997375;28;20048;-59
2022/03/02 07:34:55;;;;;;;14.15;11.57;;;-0.90;99.90;;;;;;4999762;28;20065;-57
2022/03/02 07:37:22;;;;;;;17.15;11.73;;;-0.70;99.90;;;;;;5002305;28;20033;-57
2022/03/02 07:39:48;;;;;;;18.85;11.90;;;-0.60;99.90;;;;;;4997430;28;20138;-57
2022/03/02 07:42:14;;;;;;;18.58;10.48;;;-0.50;99.90;;;;;;4996890;28;20482;-59
2022/03/02 07:44:41;;;;;;;15.90;11.23;;;-0.40;99.90;;;;;;4996985;28;20037;-58
2022/03/02 07:47:08;;;;;;;14.80;11.07;;;-0.30;99.90;;;;;;4996393;28;20027;-59
2022/03/02 07:49:34;;;;;;;15.10;10.75;;;-0.10;99.90;;;;;;5001653;28;20026;-57
2022/03/02 07:52:03;;;;;;;19.48;11.05;;;0.00;99.90;;;;;;5004039;28;20038;-58
2022/03/02 07:54:30;;;;;;;14.02;11.45;;;0.10;99.90;;;;;;4999059;28;20026;-59
2022/03/02 07:56:57;;;;;;;19.23;12.13;;;0.20;99.90;;;;;;4994237;28;20050;-57
2022/03/02 07:59:23;;;;;;;13.15;10.38;;;0.30;99.90;;;;;;4996842;28;20019;-58
2022/03/02 08:01:48;;;;;;;15.90;10.15;;;0.40;99.90;;;;;;4996761;28;20084;-58
2022/03/02 08:04:14;;;;;;;14.50;10.60;;;0.60;99.90;;;;;;4999219;28;20486;-58
2022/03/02 08:06:41;;;;;;;18.30;12.13;;;0.80;99.90;;;;;;4996373;28;20059;-57
2022/03/02 08:09:08;;;;;;;13.45;11.20;;;0.90;99.90;;;;;;4997045;28;20092;-59
2022/03/02 08:11:40;;;;;;;15.05;11.35;;;1.00;99.90;;;;;;4998750;28;20028;-57
2022/03/02 08:14:07;;;;;;;19.75;12.18;;;1.10;99.90;;;;;;5002963;28;20100;-58
2022/03/02 08:16:33;;;;;;;12.00;10.50;;;1.20;99.90;;;;;;5000459;28;20433;-58
2022/03/02 08:19:01;;;;;;;15.20;10.70;;;1.40;99.90;;;;;;4995331;28;20040;-58
2022/03/02 08:21:30;;;;;;;16.75;12.07;;;1.60;99.90;;;;;;4993516;28;20030;-58
2022/03/02 08:24:03;;;;;;;17.15;11.82;;;1.80;99.50;;;;;;4996810;28;20097;-58
2022/03/02 08:26:32;;;;;;;13.57;9.85;;;2.00;98.10;;;;;;4996365;28;20395;-57
2022/03/02 08:29:03;;;;;;;21.60;11.50;;;2.30;97.50;;;;;;5001859;28;20505;-58
2022/03/02 08:31:30;;;;;;;;;;;2.40;96.50;;;;;;4998222;28;20034;-57
2022/03/02 08:33:57;;;;;;;15.70;11.05;;;2.50;95.70;;;;;;4994968;28;19917;-59
2022/03/02 08:36:24;;;;;;;17.40;12.02;;;2.70;95.00;;;;;;4996979;28;20042;-59
2022/03/02 08:38:53;;;;;;;15.48;12.00;;;3.00;94.80;;;;;;4993589;28;20049;-58
2022/03/02 08:41:19;;;;;;;18.20;11.55;;;3.30;93.60;;;;;;4995433;28;20027;-59
2022/03/02 08:43:47;;;;;;;14.68;10.30;;;3.70;92.40;;;;;;4993544;28;20565;-59
2022/03/02 08:46:13;;;;;;;15.13;11.27;;;4.10;91.20;;;;;;5002290;28;20034;-58
2022/03/02 08:48:39;;;;;;;14.27;11.63;;;4.70;89.20;;;;;;5000006;28;20156;-59
2022/03/02 08:51:05;;;;;;;15.57;11.85;;;5.10;85.90;;;;;;4996826;28;20517;-59
2022/03/02 08:53:32;;;;;;;12.98;10.50;;;4.90;86.30;;;;;;4998187;28;20065;-58
2022/03/02 08:56:01;;;;;;;16.50;10.35;;;4.90;87.90;;;;;;5002128;28;20026;-60
2022/03/02 08:58:28;;;;;;;14.43;10.70;;;5.00;83.20;;;;;;4999094;28;20117;-59
2022/03/02 09:00:54;;;;;;;12.98;11.35;;;5.00;83.00;;;;;;4999042;28;20033;-60
2022/03/02 09:03:22;;;;;;;11.57;9.77;;;5.00;80.50;;;;;;4996768;28;20030;-60
2022/03/02 09:05:52;;;;;;;12.82;11.52;;;4.80;79.50;;;;;;4998775;28;20084;-59
2022/03/02 09:08:18;;;;;;;12.82;11.07;;;4.60;81.60;;;;;;4999141;28;20381;-61
2022/03/02 09:10:44;;;;;;;12.32;10.63;;;4.40;82.40;;;;;;4999439;28;20021;-60
2022/03/02 09:13:10;;;;;;;12.25;10.88;;;4.20;83.70;;;;;;5000253;28;20034;-61
2022/03/02 09:15:37;;;;;;;16.00;10.88;;;4.10;84.30;;;;;;5000434;28;20042;-59
2022/03/02 09:18:06;;;;;;;16.30;11.40;;;3.90;85.50;;;;;;5002641;28;20080;-59
2022/03/02 09:20:33;;;;;;;15.32;10.95;;;3.80;85.90;;;;;;5004304;28;20026;-58
2022/03/02 09:23:04;;;;;;;14.30;10.52;;;3.80;85.40;;;;;;5001088;28;20053;-60
2022/03/02 09:25:31;;;;;;;21.45;11.18;;;3.70;85.30;;;;;;4996607;28;20394;-58
2022/03/02 09:27:57;;;;;;;16.60;11.07;;;3.60;87.40;;;;;;5000644;28;20038;-57
2022/03/02 09:30:23;;;;;;;12.10;10.30;;;3.50;84.50;;;;;;4997646;28;20030;-59
2022/03/02 09:32:53;;;;;;;14.85;10.65;;;3.40;85.40;;;;;;5001505;28;20049;-59
2022/03/02 09:35:21;;;;;;;15.38;10.93;;;3.40;84.80;;;;;;5005676;28;20025;-59
2022/03/02 09:37:49;;;;;;;14.88;11.18;;;3.50;85.40;;;;;;5001956;28;20088;-59
2022/03/02 09:40:24;;;;;;;13.02;10.95;;;3.70;84.50;;;;;;4998736;28;20054;-59
2022/03/02 09:43:01;;;;;;;15.32;10.55;;;3.90;84.80;;;;;;5000064;28;20026;-60
2022/03/02 09:45:30;;;;;;;13.77;10.10;;;3.90;84.80;;;;;;4995693;28;20034;-60
2022/03/02 09:48:00;;;;;;;17.35;11.27;;;4.00;84.10;;;;;;5001232;28;20029;-59
2022/03/02 09:50:32;;;;;;;12.90;10.03;;;4.00;84.80;;;;;;5007417;28;20030;-60
2022/03/02 09:53:01;;;;;;;18.58;11.20;;;4.20;84.20;;;;;;5004449;28;20037;-60
2022/03/02 09:55:27;;;;;;;13.10;10.38;;;4.20;85.80;;;;;;5001545;28;20031;-60
2022/03/02 09:57:55;;;;;;;17.02;12.20;;;3.90;85.30;;;;;;4999958;28;20508;-59
2022/03/02 10:00:23;;;;;;;13.35;11.05;;;4.00;87.00;;;;;;5003895;28;20385;-59
2022/03/02 10:02:52;;;;;;;14.13;11.20;;;4.00;87.80;;;;;;4998292;28;20033;-59
2022/03/02 10:05:29;;;;;;;14.55;10.93;;;4.00;84.80;;;;;;4998020;28;20030;-61
2022/03/02 10:08:07;;;;;;;13.45;11.70;;;4.00;85.50;;;;;;5002916;28;20034;-58
2022/03/02 10:10:36;;;;;;;13.57;11.27;;;4.00;83.70;;;;;;4998360;28;20036;-58
2022/03/02 10:13:05;;;;;;;14.13;11.45;;;3.90;83.70;;;;;;4998879;28;20026;-60
2022/03/02 10:15:32;;;;;;;13.30;11.90;;;3.80;83.40;;;;;;5002557;28;20038;-59
2022/03/02 10:18:01;;;;;;;16.42;11.95;;;3.70;86.60;;;;;;4999283;28;20517;-59
2022/03/02 10:20:29;;;;;;;13.13;11.35;;;3.70;87.90;;;;;;4999465;28;20682;-60
2022/03/02 10:23:18;;;;;;;12.57;10.73;;;3.60;86.00;;;;;;4999894;28;20031;-58
2022/03/02 10:26:06;;;;;;;19.77;11.60;;;3.70;86.30;;;;;;5002566;28;20401;-60
2022/03/02 10:29:03;;;;;;;14.27;10.48;;;3.90;86.90;;;;;;5003147;28;20385;-59
2022/03/02 10:32:08;;;;;;;14.40;10.30;;;4.30;84.70;;;;;;5001303;28;20163;-59
2022/03/02 10:34:38;;;;;;;13.52;10.77;;;4.80;83.10;;;;;;4986960;28;20035;-60
2022/03/02 10:37:07;;;;;;;12.68;9.88;;;5.10;82.30;;;;;;4998193;28;20053;-59
2022/03/02 10:39:54;;;;;;;13.25;10.60;;;5.30;82.20;;;;;;5000281;28;20577;-58
2022/03/02 10:42:29;;;;;;;13.45;10.75;;;5.50;82.00;;;;;;4997364;28;20062;-60
2022/03/02 10:45:28;;;;;;;13.32;10.60;;;5.60;80.90;;;;;;4999154;28;20030;-59
2022/03/02 10:47:58;;;;;;;13.50;10.13;;;5.70;82.00;;;;;;4998443;28;20033;-58
2022/03/02 10:50:34;;;;;;;12.57;11.02;;;5.90;80.80;;;;;;5005542;28;20019;-60
2022/03/02 10:53:03;;;;;;;17.52;10.77;;;6.10;81.00;;;;;;4997013;28;20038;-60
2022/03/02 10:55:32;;;;;;;14.98;11.60;;;6.30;79.90;;;;;;5003179;28;20069;-59
2022/03/02 10:58:01;;;;;;;13.73;10.18;;;6.40;78.20;;;;;;5000907;28;20433;-58
2022/03/02 11:00:27;;;;;;;13.48;10.68;;;6.40;77.90;;;;;;5001183;28;20034;-61
2022/03/02 11:02:57;;;;;;;14.15;11.05;;;6.30;77.80;;;;;;5000158;28;20243;-60
2022/03/02 11:05:25;;;;;;;14.82;11.88;;;6.30;78.40;;;;;;4998575;28;20026;-60
2022/03/02 11:07:51;;;;;;;15.02;11.02;;;6.30;77.50;;;;;;4999062;28;20077;-61
2022/03/02 11:10:22;;;;;;;16.63;11.35;;;6.30;75.20;;;;;;4999326;28;20031;-61
2022/03/02 11:12:49;;;;;;;16.17;10.75;;;6.40;74.80;;;;;;4995808;28;20054;-60
2022/03/02 11:15:17;;;;;;;15.95;12.15;;;6.50;76.50;;;;;;4996091;28;20035;-56
2022/03/02 11:17:51;;;;;;;17.23;12.07;;;6.70;78.70;;;;;;5000617;28;20066;-56
2022/03/02 11:20:16;;;;;;;13.20;11.85;;;7.10;78.20;;;;;;5003312;28;20029;-56
2022/03/02 11:22:55;;;;;;;18.73;13.25;;;7.40;73.90;;;;;;5001730;28;20445;-56
2022/03/02 11:25:49;;;;;;;16.48;12.60;;;7.80;70.80;;;;;;4998692;28;20394;-55
2022/03/02 11:28:18;;;;;;;22.17;11.82;;;8.00;70.20;;;;;;4997979;28;20080;-55
2022/03/02 11:30:47;;;;;;;20.45;11.32;;;8.20;69.70;;;;;;4999445;28;20037;-57
2022/03/02 11:33:15;;;;;;;17.35;12.35;;;8.30;68.30;;;;;;4996869;28;20032;-57
2022/03/02 11:35:42;;;;;;;18.60;11.80;;;8.40;67.60;;;;;;5002229;28;20042;-57
2022/03/02 11:38:08;;;;;;;14.88;10.80;;;8.30;65.10;;;;;;5000929;28;20542;-56
2022/03/02 11:40:43;;;;;;;13.95;11.20;;;8.30;64.10;;;;;;4998561;28;20031;-56
2022/03/02 11:43:15;;;;;;;14.43;11.32;;;8.30;61.90;;;;;;5000132;28;20529;-55
2022/03/02 11:45:41;;;;;;;14.05;10.88;;;8.50;62.40;;;;;;4995317;28;20100;-57
2022/03/02 11:48:15;;;;;;;15.82;10.95;;;8.60;64.00;;;;;;4997202;28;20030;-55
2022/03/02 11:51:22;;;;;;;14.18;10.80;;;8.80;63.10;;;;;;5000044;28;20050;-56
2022/03/02 11:53:53;;;;;;;11.98;10.38;;;8.90;60.00;;;;;;4985753;28;21301;-56
2022/03/02 11:56:22;;;;;;;12.18;9.93;;;8.80;59.20;;;;;;4986641;28;20117;-56
2022/03/02 11:58:58;;;;;;;12.82;11.10;;;8.80;59.70;;;;;;4996019;28;20038;-56
2022/03/02 12:01:26;;;;;;;15.15;10.65;;;8.90;59.50;;;;;;5001887;28;20100;-56
2022/03/02 12:04:00;;;;;;;12.75;10.60;;;8.80;60.00;;;;;;5000357;28;20038;-58
2022/03/02 12:06:28;;;;;;;14.02;10.27;;;8.60;60.30;;;;;;5000499;28;20027;-56
2022/03/02 12:08:56;;;;;;;14.07;11.27;;;8.70;63.70;;;;;;4998915;28;20121;-54
2022/03/02 12:11:34;;;;;;;11.50;9.85;;;9.10;63.20;;;;;;4998097;28;20029;-53
2022/03/02 12:14:00;;;;;;;12.23;10.70;;;9.60;59.50;;;;;;5001242;28;20504;-53
2022/03/02 12:16:46;;;;;;;12.25;10.40;;;9.70;58.00;;;;;;4997763;28;20050;-54
2022/03/02 12:19:38;;;;;;;16.65;11.15;;;10.40;59.10;;;;;;4996915;28;20144;-53
2022/03/02 12:22:10;;;;;;;11.02;9.38;;;10.30;56.30;;;;;;5000388;28;20411;-53
2022/03/02 12:24:37;;;;;;;15.80;11.45;;;10.60;56.00;;;;;;5000761;28;20054;-52
2022/03/02 12:27:06;;;;;;;13.52;9.90;;;10.40;52.50;;;;;;5001104;28;20657;-53
2022/03/02 12:29:37;;;;;;;11.70;10.50;;;10.40;53.50;;;;;;4994050;28;20172;-54
2022/03/02 12:32:08;;;;;;;14.10;10.77;;;10.70;54.20;;;;;;4998187;28;20052;-57
2022/03/02 12:34:46;;;;;;;13.02;10.48;;;11.00;50.90;;;;;;4996396;28;20065;-53
2022/03/02 12:37:13;;;;;;;15.13;11.57;;;11.10;52.10;;;;;;4993601;28;20026;-53
2022/03/02 12:39:40;;;;;;;11.07;9.98;;;10.90;51.30;;;;;;5003884;28;20045;-53